createdAt,value
2023-02-11T00:01:33.464Z,16.48
2023-02-11T00:04:01.944Z,14.85
2023-02-11T00:06:31.856Z,14.43
2023-02-11T00:08:59.398Z,17.88
2023-02-11T00:11:30.920Z,15.98
2023-02-11T00:14:00.214Z,14.30
2023-02-11T00:16:27.957Z,13.77
2023-02-11T00:18:55.798Z,15.45
2023-02-11T00:21:25.969Z,14.98
2023-02-11T00:23:54.965Z,15.68
2023-02-11T00:26:25.810Z,12.75
2023-02-11T00:28:53.702Z,13.93
2023-02-11T00:31:23.207Z,15.30
2023-02-11T00:33:50.682Z,12.50
2023-02-11T00:36:20.809Z,13.95
2023-02-11T00:38:49.970Z,11.90
2023-02-11T00:41:18.243Z,12.68
2023-02-11T00:43:46.159Z,13.15
2023-02-11T00:46:14.029Z,15.55
2023-02-11T00:48:41.552Z,12.52
2023-02-11T00:51:09.532Z,13.93
2023-02-11T00:53:37.097Z,13.43
2023-02-11T00:56:04.833Z,13.27
2023-02-11T00:58:32.154Z,14.57
2023-02-11T01:00:59.581Z,12.50
2023-02-11T01:03:45.516Z,12.98
2023-02-11T01:09:39.127Z,12.50
2023-02-11T01:12:06.626Z,14.77
2023-02-11T01:14:33.942Z,11.13
2023-02-11T01:17:01.246Z,11.20
2023-02-11T01:19:28.627Z,11.00
2023-02-11T01:21:55.926Z,12.98
2023-02-11T01:24:23.173Z,13.18
2023-02-11T01:26:50.489Z,12.20
2023-02-11T01:29:17.782Z,12.52
2023-02-11T01:31:45.089Z,13.20
2023-02-11T01:34:12.625Z,13.30
2023-02-11T01:36:40.241Z,11.07
2023-02-11T01:39:08.763Z,11.77
2023-02-11T01:41:37.019Z,10.75
2023-02-11T01:44:27.552Z,13.20
2023-02-11T01:46:55.689Z,10.90
2023-02-11T01:49:32.930Z,12.05
2023-02-11T01:52:23.950Z,13.07
2023-02-11T01:55:13.195Z,11.27
2023-02-11T01:57:44.641Z,11.73
2023-02-11T02:00:21.601Z,9.27
2023-02-11T02:03:05.220Z,10.48
2023-02-11T02:05:35.438Z,10.45
2023-02-11T02:08:23.806Z,12.35
2023-02-11T02:10:56.458Z,10.38
2023-02-11T02:13:25.276Z,9.82
2023-02-11T02:15:55.901Z,10.10
2023-02-11T02:18:41.745Z,10.82
2023-02-11T02:21:36.064Z,10.93
2023-02-11T02:24:34.125Z,12.65
2023-02-11T02:27:16.013Z,9.98
2023-02-11T02:30:04.882Z,9.07
2023-02-11T02:32:47.767Z,10.07
2023-02-11T02:35:30.206Z,9.73
2023-02-11T02:38:10.197Z,9.52
2023-02-11T02:40:52.534Z,9.25
2023-02-11T02:43:21.618Z,9.02
2023-02-11T02:45:49.267Z,11.20
2023-02-11T02:48:29.596Z,12.38
2023-02-11T02:51:10.733Z,9.95
2023-02-11T02:53:48.651Z,10.30
2023-02-11T02:56:59.415Z,8.75
2023-02-11T02:59:45.365Z,10.07
2023-02-11T03:02:29.229Z,9.57
2023-02-11T03:05:05.374Z,11.25
2023-02-11T03:07:41.662Z,9.98
2023-02-11T03:10:31.444Z,9.10
2023-02-11T03:12:59.882Z,9.55
2023-02-11T03:15:30.997Z,10.48
2023-02-11T03:18:01.095Z,11.15
2023-02-11T03:20:33.105Z,9.80
2023-02-11T03:23:21.252Z,11.85
2023-02-11T03:26:11.441Z,10.70
2023-02-11T03:29:03.428Z,9.05
2023-02-11T03:31:34.419Z,9.32
2023-02-11T03:34:08.799Z,9.10
2023-02-11T03:36:49.471Z,11.80
2023-02-11T03:39:21.357Z,10.20
2023-02-11T03:41:50.638Z,10.00
2023-02-11T03:44:19.940Z,11.05
2023-02-11T03:46:51.505Z,11.05
2023-02-11T03:49:21.785Z,9.95
2023-02-11T03:51:52.693Z,10.20
2023-02-11T03:54:27.647Z,8.57
2023-02-11T03:56:57.783Z,8.15
2023-02-11T03:59:25.533Z,10.25
2023-02-11T04:01:53.166Z,9.63
2023-02-11T04:04:20.793Z,10.38
2023-02-11T04:06:48.104Z,9.23
2023-02-11T04:09:15.484Z,9.40
2023-02-11T04:11:42.712Z,11.95
2023-02-11T04:14:10.004Z,8.13
2023-02-11T04:16:37.432Z,9.50
2023-02-11T04:19:05.180Z,7.72
2023-02-11T04:21:32.457Z,8.90
2023-02-11T04:23:59.767Z,8.93
2023-02-11T04:26:27.131Z,10.82
2023-02-11T04:28:54.281Z,8.75
2023-02-11T04:31:21.613Z,9.43
2023-02-11T04:33:48.905Z,9.70
2023-02-11T04:36:16.122Z,11.48
2023-02-11T04:38:43.395Z,9.13
2023-02-11T04:41:10.682Z,7.70
2023-02-11T04:43:38.062Z,9.13
2023-02-11T04:46:05.536Z,8.80
2023-02-11T04:48:32.880Z,7.50
2023-02-11T04:51:00.176Z,7.38
2023-02-11T04:53:27.653Z,9.90
2023-02-11T04:55:55.160Z,10.07
2023-02-11T04:58:22.353Z,11.27
2023-02-11T05:00:50.034Z,9.32
2023-02-11T05:03:17.667Z,8.93
2023-02-11T05:05:44.998Z,6.90
2023-02-11T05:08:12.747Z,8.25
2023-02-11T05:10:40.106Z,8.90
2023-02-11T05:13:07.479Z,11.35
2023-02-11T05:15:34.798Z,7.82
2023-02-11T05:18:02.100Z,9.73
2023-02-11T05:20:29.430Z,9.45
2023-02-11T05:22:56.764Z,8.63
2023-02-11T05:25:24.012Z,8.85
2023-02-11T05:27:51.377Z,8.68
2023-02-11T05:30:18.755Z,7.60
2023-02-11T05:32:46.112Z,9.77
2023-02-11T05:35:13.756Z,7.13
2023-02-11T05:37:41.062Z,9.50
2023-02-11T05:40:08.885Z,8.25
2023-02-11T05:42:36.251Z,9.45
2023-02-11T05:45:03.765Z,8.82
2023-02-11T05:47:30.959Z,7.78
2023-02-11T05:49:58.226Z,8.98
2023-02-11T05:52:25.613Z,13.05
2023-02-11T05:54:52.905Z,7.75
2023-02-11T05:57:20.189Z,9.77
2023-02-11T05:59:47.530Z,7.38
2023-02-11T06:02:14.982Z,8.63
2023-02-11T06:04:42.325Z,6.72
2023-02-11T06:07:09.649Z,7.75
2023-02-11T06:09:37.139Z,7.13
2023-02-11T06:12:05.063Z,8.20
2023-02-11T06:14:34.194Z,7.22
2023-02-11T06:17:01.691Z,7.72
2023-02-11T06:19:28.977Z,9.25
2023-02-11T06:21:56.784Z,6.50
2023-02-11T06:24:51.080Z,8.90
2023-02-11T06:27:12.705Z,9.10
2023-02-11T06:29:39.988Z,6.93
2023-02-11T06:32:11.640Z,6.57
2023-02-11T06:34:43.266Z,7.75
2023-02-11T06:37:10.518Z,7.85
2023-02-11T06:39:37.916Z,7.53
2023-02-11T06:42:07.925Z,6.50
2023-02-11T06:44:35.314Z,6.15
2023-02-11T06:47:02.575Z,7.00
2023-02-11T06:49:30.032Z,7.60
2023-02-11T06:51:57.367Z,9.35
2023-02-11T06:54:24.683Z,8.88
2023-02-11T06:56:52.105Z,8.43
2023-02-11T06:59:20.756Z,8.40
2023-02-11T07:01:48.618Z,9.05
2023-02-11T07:04:16.267Z,8.07
2023-02-11T07:06:43.623Z,7.18
2023-02-11T07:09:10.924Z,7.28
2023-02-11T07:11:38.112Z,7.13
2023-02-11T07:14:11.167Z,6.35
2023-02-11T07:16:38.660Z,8.52
2023-02-11T07:19:06.022Z,8.52
2023-02-11T07:21:33.221Z,7.55
2023-02-11T07:24:00.450Z,6.82
2023-02-11T07:26:28.919Z,12.20
2023-02-11T07:28:56.396Z,8.57
2023-02-11T07:31:26.776Z,7.03
2023-02-11T07:33:56.629Z,7.13
2023-02-11T07:36:23.853Z,10.20
2023-02-11T07:38:51.077Z,6.75
2023-02-11T07:41:21.200Z,8.45
2023-02-11T07:43:49.043Z,6.95
2023-02-11T07:46:27.608Z,6.50
2023-02-11T07:48:55.540Z,7.97
2023-02-11T07:51:28.496Z,6.63
2023-02-11T07:53:57.625Z,7.90
2023-02-11T07:56:25.039Z,8.20
2023-02-11T07:58:52.320Z,9.60
2023-02-11T08:01:24.958Z,6.50
2023-02-11T08:03:53.127Z,8.43
2023-02-11T08:06:22.670Z,8.25
2023-02-11T08:08:50.877Z,8.00
2023-02-11T08:11:20.372Z,8.38
2023-02-11T08:13:48.126Z,11.50
2023-02-11T08:16:27.305Z,11.38
2023-02-11T08:18:57.681Z,8.25
2023-02-11T08:21:25.923Z,7.97
2023-02-11T08:23:53.811Z,6.47
2023-02-11T08:26:27.288Z,8.50
2023-02-11T08:28:56.365Z,7.45
2023-02-11T08:31:26.933Z,7.32
2023-02-11T08:33:57.861Z,6.38
2023-02-11T08:36:29.155Z,7.45
2023-02-11T08:39:17.934Z,7.90
2023-02-11T08:41:48.930Z,6.90
2023-02-11T08:44:17.713Z,8.40
2023-02-11T08:46:45.008Z,6.07
2023-02-11T08:49:12.383Z,8.50
2023-02-11T08:51:40.073Z,7.63
2023-02-11T08:54:09.589Z,6.88
2023-02-11T08:56:38.190Z,8.25
2023-02-11T08:59:06.214Z,6.38
2023-02-11T09:01:42.422Z,8.48
2023-02-11T09:04:10.576Z,10.57
2023-02-11T09:06:37.822Z,12.25
2023-02-11T09:09:05.360Z,14.18
2023-02-11T09:11:35.215Z,14.50
2023-02-11T09:14:04.392Z,16.48
2023-02-11T09:16:34.766Z,14.20
2023-02-11T09:19:03.802Z,12.55
2023-02-11T09:21:31.203Z,10.60
2023-02-11T09:23:58.750Z,10.63
2023-02-11T09:26:31.778Z,13.18
2023-02-11T09:28:59.842Z,11.15
2023-02-11T09:31:29.589Z,10.95
2023-02-11T09:33:59.971Z,8.85
2023-02-11T09:36:30.302Z,10.18
2023-02-11T09:39:02.249Z,7.38
2023-02-11T09:41:39.483Z,6.90
2023-02-11T09:44:09.684Z,11.50
2023-02-11T09:46:42.229Z,9.50
2023-02-11T09:49:21.950Z,12.48
2023-02-11T09:51:57.133Z,7.90
2023-02-11T09:54:34.566Z,9.20
2023-02-11T09:57:02.066Z,7.82
2023-02-11T09:59:29.384Z,10.20
2023-02-11T10:02:05.106Z,10.65
2023-02-11T10:05:00.813Z,8.65
2023-02-11T10:07:54.055Z,11.38
2023-02-11T10:10:45.412Z,10.18
2023-02-11T10:13:43.757Z,9.23
2023-02-11T10:16:23.208Z,10.20
2023-02-11T10:19:08.704Z,9.27
2023-02-11T10:21:50.610Z,10.57
2023-02-11T10:24:18.397Z,7.50
2023-02-11T10:26:46.495Z,9.30
2023-02-11T10:29:42.180Z,8.55
2023-02-11T10:32:33.431Z,9.48
2023-02-11T10:35:10.433Z,9.20
2023-02-11T10:37:37.942Z,9.15
2023-02-11T10:40:07.505Z,7.15
2023-02-11T10:42:35.915Z,7.88
2023-02-11T10:45:07.296Z,13.43
2023-02-11T10:47:39.684Z,9.85
2023-02-11T10:50:24.172Z,10.85
2023-02-11T10:52:51.640Z,10.52
2023-02-11T10:55:26.126Z,9.13
2023-02-11T10:57:57.942Z,7.43
2023-02-11T11:00:36.201Z,9.98
2023-02-11T11:03:25.540Z,9.80
2023-02-11T11:05:58.485Z,8.55
2023-02-11T11:08:41.220Z,11.50
2023-02-11T11:11:12.256Z,13.68
2023-02-11T11:13:41.803Z,17.42
2023-02-11T11:16:12.105Z,16.02
2023-02-11T11:18:45.221Z,12.63
2023-02-11T11:21:36.641Z,11.52
2023-02-11T11:24:04.544Z,11.27
2023-02-11T11:26:44.707Z,12.02
2023-02-11T11:29:18.800Z,12.80
2023-02-11T11:31:56.991Z,12.45
2023-02-11T11:34:30.147Z,12.80
2023-02-11T11:39:29.815Z,13.93
2023-02-11T11:42:00.606Z,11.95
2023-02-11T11:44:37.571Z,13.02
2023-02-11T11:47:31.470Z,13.45
2023-02-11T11:50:19.506Z,12.23
2023-02-11T11:52:54.778Z,12.40
2023-02-11T11:55:26.972Z,12.82
2023-02-11T11:57:54.255Z,12.07
2023-02-11T12:00:32.452Z,13.23
2023-02-11T12:03:21.304Z,14.70
2023-02-11T12:06:11.801Z,11.20
2023-02-11T12:09:16.975Z,11.20
2023-02-11T12:11:59.464Z,10.98
2023-02-11T12:14:53.328Z,14.03
2023-02-11T12:17:39.018Z,10.63
2023-02-11T12:20:32.945Z,11.95
2023-02-11T12:23:11.506Z,10.70
2023-02-11T12:25:54.337Z,15.60
2023-02-11T12:28:24.472Z,13.30
2023-02-11T12:30:57.815Z,10.77
2023-02-11T12:33:38.454Z,9.82
2023-02-11T12:36:12.968Z,9.93
2023-02-11T12:38:43.259Z,10.77
2023-02-11T12:42:01.825Z,13.13
2023-02-11T12:44:32.229Z,12.93
2023-02-11T12:47:14.227Z,14.13
2023-02-11T12:49:49.818Z,13.95
2023-02-11T12:52:44.501Z,15.85
2023-02-11T12:55:24.368Z,16.67
2023-02-11T12:57:55.024Z,11.68
2023-02-11T13:00:45.364Z,11.93
2023-02-11T13:03:18.954Z,11.98
2023-02-11T13:05:54.198Z,13.82
2023-02-11T13:08:50.458Z,16.70
2023-02-11T13:11:22.973Z,12.75
2023-02-11T13:13:53.042Z,13.52
2023-02-11T13:16:39.530Z,11.73
2023-02-11T13:19:26.819Z,14.27
2023-02-11T13:22:09.395Z,12.98
2023-02-11T13:24:53.721Z,12.52
2023-02-11T13:27:21.358Z,15.23
2023-02-11T13:30:04.322Z,11.50
2023-02-11T13:32:56.701Z,13.93
2023-02-11T13:35:33.000Z,10.55
2023-02-11T13:38:13.220Z,13.68
2023-02-11T13:40:41.161Z,10.82
2023-02-11T13:43:21.998Z,10.90
2023-02-11T13:45:51.517Z,10.68
2023-02-11T13:48:31.684Z,8.60
2023-02-11T13:51:02.809Z,8.85
2023-02-11T13:53:44.551Z,8.93
2023-02-11T13:56:32.443Z,8.15
2023-02-11T13:59:02.458Z,9.38
2023-02-11T14:02:10.969Z,12.52
2023-02-11T14:05:22.854Z,10.10
2023-02-11T14:08:33.480Z,8.00
2023-02-11T14:11:12.317Z,10.93
2023-02-11T14:13:48.482Z,8.10
2023-02-11T14:16:31.587Z,10.18
2023-02-11T14:19:03.106Z,8.98
2023-02-11T14:21:30.473Z,7.82
2023-02-11T14:24:10.888Z,8.90
2023-02-11T14:26:49.510Z,8.23
2023-02-11T14:29:34.462Z,8.40
2023-02-11T14:32:23.311Z,8.00
2023-02-11T14:35:02.935Z,10.23
2023-02-11T14:37:36.115Z,8.30
2023-02-11T14:42:37.249Z,8.30
2023-02-11T14:45:08.696Z,9.10
2023-02-11T14:47:45.278Z,8.25
2023-02-11T14:50:32.100Z,9.73
2023-02-11T14:53:01.874Z,9.80
2023-02-11T14:55:33.521Z,8.93
2023-02-11T14:58:18.947Z,7.93
2023-02-11T15:01:00.931Z,8.90
2023-02-11T15:03:38.831Z,8.27
2023-02-11T15:06:06.472Z,8.90
2023-02-11T15:08:38.333Z,9.45
2023-02-11T15:11:11.826Z,9.18
2023-02-11T15:13:39.392Z,8.38
2023-02-11T15:16:10.094Z,8.25
2023-02-11T15:18:42.062Z,8.93
2023-02-11T15:21:10.412Z,12.52
2023-02-11T15:23:39.019Z,8.38
2023-02-11T15:26:21.369Z,6.03
2023-02-11T15:28:51.934Z,9.50
2023-02-11T15:31:23.389Z,6.28
2023-02-11T15:33:52.157Z,8.55
2023-02-11T15:36:28.512Z,20.90
2023-02-11T15:39:32.960Z,7.85
2023-02-11T15:42:38.064Z,8.65
2023-02-11T15:45:14.588Z,7.70
2023-02-11T15:47:54.281Z,7.35
2023-02-11T15:50:25.554Z,10.32
2023-02-11T15:52:55.156Z,8.15
2023-02-11T15:55:23.560Z,10.80
2023-02-11T15:58:02.041Z,10.05
2023-02-11T16:00:36.123Z,7.10
2023-02-11T16:03:04.675Z,8.43
2023-02-11T16:05:35.469Z,8.38
2023-02-11T16:08:25.648Z,6.95
2023-02-11T16:11:03.351Z,7.57
2023-02-11T16:13:34.742Z,7.32
2023-02-11T16:16:18.219Z,9.13
2023-02-11T16:19:03.345Z,9.55
2023-02-11T16:21:39.301Z,8.68
2023-02-11T16:24:21.592Z,6.65
2023-02-11T16:26:55.589Z,8.38
2023-02-11T16:29:31.834Z,8.43
2023-02-11T16:32:09.645Z,8.45
2023-02-11T16:34:37.343Z,9.80
2023-02-11T16:37:06.169Z,7.68
2023-02-11T16:39:33.942Z,9.05
2023-02-11T16:42:01.588Z,7.72
2023-02-11T16:44:29.472Z,6.70
2023-02-11T16:47:00.062Z,9.13
2023-02-11T16:49:33.885Z,8.13
2023-02-11T16:52:05.904Z,10.23
2023-02-11T16:54:33.951Z,9.57
2023-02-11T16:57:05.988Z,11.65
2023-02-11T16:59:33.306Z,7.90
2023-02-11T17:02:00.714Z,9.73
2023-02-11T17:04:31.554Z,10.18
2023-02-11T17:06:59.406Z,9.82
2023-02-11T17:09:30.525Z,8.80
2023-02-11T17:11:58.856Z,8.88
2023-02-11T17:14:26.241Z,9.50
2023-02-11T17:16:53.628Z,11.38
2023-02-11T17:19:21.824Z,7.63
2023-02-11T17:21:51.460Z,9.30
2023-02-11T17:24:20.348Z,9.07
2023-02-11T17:26:48.396Z,9.25
2023-02-11T17:29:21.020Z,14.05
2023-02-11T17:31:48.820Z,8.70
2023-02-11T17:34:16.872Z,10.05
2023-02-11T17:36:44.461Z,10.15
2023-02-11T17:39:12.319Z,10.45
2023-02-11T17:41:40.592Z,9.73
2023-02-11T17:44:09.017Z,9.85
2023-02-11T17:46:36.761Z,10.32
2023-02-11T17:49:04.476Z,9.73
2023-02-11T17:51:37.679Z,8.55
2023-02-11T17:56:37.076Z,12.55
2023-02-11T17:59:06.274Z,9.82
2023-02-11T18:01:34.372Z,12.68
2023-02-11T18:04:02.576Z,10.82
2023-02-11T18:06:30.331Z,12.32
2023-02-11T18:08:59.658Z,10.35
2023-02-11T18:11:27.919Z,11.98
2023-02-11T18:13:55.441Z,10.60
2023-02-11T18:16:25.175Z,8.52
2023-02-11T18:18:52.664Z,12.50
2023-02-11T18:21:21.806Z,12.80
2023-02-11T18:23:49.698Z,10.20
2023-02-11T18:26:19.734Z,9.75
2023-02-11T18:28:50.178Z,14.00
2023-02-11T18:31:24.698Z,9.75
2023-02-11T18:33:58.580Z,11.40
2023-02-11T18:36:26.236Z,9.93
2023-02-11T18:38:54.379Z,13.82
2023-02-11T18:41:21.763Z,10.73
2023-02-11T18:43:49.289Z,10.98
2023-02-11T18:46:16.767Z,10.15
2023-02-11T18:48:45.032Z,13.73
2023-02-11T18:51:16.155Z,10.20
2023-02-11T18:53:43.516Z,11.20
2023-02-11T18:56:16.195Z,10.65
2023-02-11T18:58:43.703Z,12.90
2023-02-11T19:01:15.053Z,12.18
2023-02-11T19:03:43.815Z,11.40
2023-02-11T19:06:35.240Z,9.73
2023-02-11T19:09:06.926Z,14.38
2023-02-11T19:11:46.934Z,12.77
2023-02-11T19:14:16.664Z,13.55
2023-02-11T19:16:46.023Z,12.05
2023-02-11T19:19:14.050Z,12.13
2023-02-11T19:21:43.694Z,13.65
2023-02-11T19:24:12.571Z,14.05
2023-02-11T19:26:39.928Z,12.57
2023-02-11T19:29:07.441Z,14.20
2023-02-11T19:31:37.483Z,11.48
2023-02-11T19:34:05.483Z,16.67
2023-02-11T19:36:36.295Z,13.35
2023-02-11T19:39:05.096Z,11.82
2023-02-11T19:41:33.739Z,11.40
2023-02-11T19:44:01.946Z,11.57
2023-02-11T19:46:32.508Z,14.55
2023-02-11T19:49:00.794Z,12.30
2023-02-11T19:51:28.650Z,16.00
2023-02-11T19:53:58.128Z,13.20
2023-02-11T19:56:25.459Z,13.13
2023-02-11T19:58:52.719Z,15.38
2023-02-11T20:01:22.231Z,11.25
2023-02-11T20:03:51.566Z,12.35
2023-02-11T20:06:24.757Z,13.82
2023-02-11T20:11:28.999Z,13.98
2023-02-11T20:13:56.975Z,11.60
2023-02-11T20:16:40.650Z,16.40
2023-02-11T20:19:16.868Z,12.05
2023-02-11T20:21:47.071Z,10.98
2023-02-11T20:24:19.133Z,14.10
2023-02-11T20:26:48.338Z,15.70
2023-02-11T20:29:17.867Z,12.10
2023-02-11T20:31:45.668Z,13.20
2023-02-11T20:34:13.462Z,12.77
2023-02-11T20:36:41.250Z,12.02
2023-02-11T20:39:10.417Z,13.73
2023-02-11T20:41:41.111Z,12.38
2023-02-11T20:44:10.959Z,12.00
2023-02-11T20:46:41.762Z,12.10
2023-02-11T20:49:14.182Z,12.15
2023-02-11T20:51:41.713Z,15.23
2023-02-11T20:54:12.885Z,14.27
2023-02-11T20:56:40.233Z,12.30
2023-02-11T20:59:07.860Z,11.10
2023-02-11T21:01:37.910Z,13.82
2023-02-11T21:04:08.334Z,14.82
2023-02-11T21:06:39.455Z,12.75
2023-02-11T21:09:08.724Z,12.32
2023-02-11T21:11:36.066Z,12.18
2023-02-11T21:14:03.564Z,15.52
2023-02-11T21:16:31.635Z,14.23
2023-02-11T21:19:00.545Z,12.40
2023-02-11T21:21:27.810Z,12.82
2023-02-11T21:23:56.183Z,13.02
2023-02-11T21:26:23.486Z,12.65
2023-02-11T21:28:51.995Z,13.50
2023-02-11T21:31:27.068Z,12.85
2023-02-11T21:33:55.575Z,13.60
2023-02-11T21:36:23.978Z,11.75
2023-02-11T21:38:52.021Z,12.88
2023-02-11T21:41:22.401Z,11.95
2023-02-11T21:43:50.901Z,14.25
2023-02-11T21:46:19.436Z,15.98
2023-02-11T21:48:47.233Z,11.88
2023-02-11T21:51:23.495Z,11.95
2023-02-11T21:53:55.017Z,11.80
2023-02-11T21:56:22.704Z,12.55
2023-02-11T21:58:53.409Z,12.52
2023-02-11T22:01:23.512Z,13.57
2023-02-11T22:03:50.963Z,12.32
2023-02-11T22:06:27.224Z,11.80
2023-02-11T22:08:55.392Z,12.88
2023-02-11T22:11:23.760Z,14.43
2023-02-11T22:13:55.553Z,11.40
2023-02-11T22:16:23.890Z,11.85
2023-02-11T22:18:51.889Z,13.80
2023-02-11T22:21:21.802Z,13.43
2023-02-11T22:23:49.986Z,14.07
2023-02-11T22:26:21.275Z,12.10
2023-02-11T22:28:49.622Z,13.60
2023-02-11T22:31:19.681Z,12.38
2023-02-11T22:33:47.385Z,11.85
2023-02-11T22:36:21.301Z,13.30
2023-02-11T22:38:49.577Z,13.27
2023-02-11T22:41:17.858Z,13.93
2023-02-11T22:43:45.657Z,13.75
2023-02-11T22:46:15.794Z,14.48
2023-02-11T22:48:43.947Z,14.77
2023-02-11T22:51:16.946Z,14.57
2023-02-11T22:53:44.551Z,24.27
2023-02-11T22:56:15.606Z,19.15
2023-02-11T22:58:43.550Z,17.38
2023-02-11T23:01:12.825Z,15.50
2023-02-11T23:03:40.543Z,17.08
2023-02-11T23:06:09.045Z,16.58
2023-02-11T23:08:39.210Z,15.48
2023-02-11T23:11:09.774Z,16.00
2023-02-11T23:13:39.563Z,15.98
2023-02-11T23:16:09.596Z,17.00
2023-02-11T23:18:39.315Z,14.13
2023-02-11T23:21:28.008Z,16.55
2023-02-11T23:23:57.837Z,16.58
2023-02-11T23:26:25.835Z,16.17
2023-02-11T23:28:53.615Z,16.38
2023-02-11T23:31:22.654Z,15.23
2023-02-11T23:33:51.278Z,16.73
2023-02-11T23:36:19.749Z,16.33
2023-02-11T23:38:47.670Z,14.75
2023-02-11T23:41:15.958Z,18.48
2023-02-11T23:43:43.899Z,16.02
2023-02-11T23:46:11.472Z,15.10
2023-02-11T23:48:40.420Z,19.77
2023-02-11T23:51:09.788Z,17.27
2023-02-11T23:53:38.580Z,17.00
2023-02-11T23:56:08.784Z,18.25
2023-02-11T23:58:36.412Z,16.17
